createdAt,value
2023-03-12T00:01:30.262Z,7.28
2023-03-12T00:03:57.107Z,6.97
2023-03-12T00:06:23.636Z,6.80
2023-03-12T00:08:50.150Z,6.53
2023-03-12T00:11:18.816Z,6.55
2023-03-12T00:13:48.776Z,5.47
2023-03-12T00:16:15.769Z,5.20
2023-03-12T00:18:43.968Z,6.13
2023-03-12T00:21:10.773Z,5.38
2023-03-12T00:23:37.526Z,5.00
2023-03-12T00:26:06.373Z,5.22
2023-03-12T00:28:32.951Z,4.50
2023-03-12T00:30:59.481Z,4.60
2023-03-12T00:33:26.317Z,4.70
2023-03-12T00:35:53.564Z,3.88
2023-03-12T00:38:19.971Z,4.53
2023-03-12T00:40:46.769Z,3.93
2023-03-12T00:43:13.703Z,4.15
2023-03-12T00:45:40.261Z,4.07
2023-03-12T00:48:06.928Z,4.15
2023-03-12T00:50:33.362Z,4.10
2023-03-12T00:53:00.154Z,4.03
2023-03-12T00:55:26.569Z,4.22
2023-03-12T00:57:52.971Z,4.57
2023-03-12T01:00:20.071Z,4.07
2023-03-12T01:02:46.507Z,3.63
2023-03-12T01:05:13.630Z,3.60
2023-03-12T01:07:40.549Z,4.40
2023-03-12T01:10:08.830Z,4.05
2023-03-12T01:12:35.581Z,3.80
2023-03-12T01:15:01.998Z,4.13
2023-03-12T01:17:28.435Z,4.00
2023-03-12T01:19:54.838Z,3.95
2023-03-12T01:22:21.620Z,3.97
2023-03-12T01:24:48.289Z,4.03
2023-03-12T01:27:14.744Z,4.07
2023-03-12T01:29:41.552Z,3.73
2023-03-12T01:32:08.348Z,3.72
2023-03-12T01:34:35.547Z,3.92
2023-03-12T01:37:02.444Z,4.13
2023-03-12T01:39:29.460Z,3.45
2023-03-12T01:41:56.034Z,3.10
2023-03-12T01:44:22.450Z,3.17
2023-03-12T01:46:48.883Z,3.83
2023-03-12T01:49:21.918Z,4.15
2023-03-12T01:51:58.885Z,3.55
2023-03-12T01:54:29.767Z,3.43
2023-03-12T01:56:57.244Z,3.30
2023-03-12T01:59:29.219Z,2.75
2023-03-12T02:01:55.770Z,3.13
2023-03-12T02:04:26.807Z,3.38
2023-03-12T02:07:03.153Z,2.83
2023-03-12T02:09:32.607Z,2.92
2023-03-12T02:11:59.472Z,2.92
2023-03-12T02:14:26.332Z,2.42
2023-03-12T02:16:54.387Z,3.08
2023-03-12T02:19:54.160Z,2.97
2023-03-12T02:22:21.080Z,2.58
2023-03-12T02:25:25.230Z,3.00
2023-03-12T02:27:52.687Z,2.97
2023-03-12T02:30:20.170Z,2.40
2023-03-12T02:32:50.183Z,2.40
2023-03-12T02:35:17.339Z,2.50
2023-03-12T02:37:51.875Z,2.95
2023-03-12T02:40:43.663Z,2.88
2023-03-12T02:43:11.005Z,2.53
2023-03-12T02:45:38.975Z,2.70
2023-03-12T02:48:09.081Z,2.70
2023-03-12T02:50:35.595Z,2.80
2023-03-12T02:53:02.016Z,2.50
2023-03-12T02:55:28.413Z,2.72
2023-03-12T02:57:54.797Z,2.70
2023-03-12T03:00:21.856Z,2.70
2023-03-12T03:02:48.322Z,2.03
2023-03-12T03:05:14.948Z,2.45
2023-03-12T03:07:41.402Z,2.53
2023-03-12T03:10:08.383Z,2.20
2023-03-12T03:12:36.898Z,2.20
2023-03-12T03:15:04.762Z,2.17
2023-03-12T03:17:31.228Z,2.55
2023-03-12T03:19:57.633Z,2.75
2023-03-12T03:22:24.211Z,2.03
2023-03-12T03:24:50.770Z,2.08
2023-03-12T03:27:17.242Z,2.75
2023-03-12T03:29:46.531Z,2.13
2023-03-12T03:32:13.519Z,2.30
2023-03-12T03:34:40.019Z,2.50
2023-03-12T03:37:06.482Z,2.20
2023-03-12T03:39:34.316Z,2.47
2023-03-12T03:42:00.736Z,2.53
2023-03-12T03:44:27.161Z,2.40
2023-03-12T03:46:55.420Z,1.80
2023-03-12T03:49:23.274Z,2.13
2023-03-12T03:51:51.712Z,2.60
2023-03-12T03:54:18.966Z,2.30
2023-03-12T03:56:45.534Z,2.17
2023-03-12T03:59:12.056Z,2.10
2023-03-12T04:01:38.537Z,2.17
2023-03-12T04:04:05.247Z,1.95
2023-03-12T04:06:31.810Z,2.15
2023-03-12T04:08:59.060Z,2.13
2023-03-12T04:11:26.178Z,1.60
2023-03-12T04:13:52.610Z,1.70
2023-03-12T04:16:19.390Z,2.28
2023-03-12T04:18:45.831Z,2.15
2023-03-12T04:21:13.282Z,2.05
2023-03-12T04:23:39.997Z,1.83
2023-03-12T04:26:07.290Z,2.15
2023-03-12T04:28:35.182Z,1.48
2023-03-12T04:31:04.227Z,1.77
2023-03-12T04:33:33.515Z,2.22
2023-03-12T04:36:00.491Z,2.17
2023-03-12T04:38:27.396Z,2.00
2023-03-12T04:41:09.468Z,2.03
2023-03-12T04:43:36.025Z,1.95
2023-03-12T04:46:03.283Z,2.13
2023-03-12T04:48:30.015Z,1.90
2023-03-12T04:50:56.517Z,1.98
2023-03-12T04:53:23.605Z,2.33
2023-03-12T04:55:50.298Z,2.25
2023-03-12T04:58:17.117Z,2.88
2023-03-12T05:00:43.543Z,2.30
2023-03-12T05:03:10.073Z,2.55
2023-03-12T05:05:36.865Z,2.70
2023-03-12T05:08:04.519Z,2.42
2023-03-12T05:10:31.520Z,3.20
2023-03-12T05:12:58.528Z,2.60
2023-03-12T05:15:25.103Z,3.15
2023-03-12T05:17:51.774Z,2.72
2023-03-12T05:20:18.332Z,2.25
2023-03-12T05:22:45.067Z,2.17
2023-03-12T05:25:11.873Z,2.10
2023-03-12T05:27:38.544Z,2.60
2023-03-12T05:30:06.299Z,2.58
2023-03-12T05:32:33.422Z,2.80
2023-03-12T05:34:59.848Z,2.95
2023-03-12T05:37:26.267Z,1.87
2023-03-12T05:39:54.639Z,2.50
2023-03-12T05:42:21.350Z,2.20
2023-03-12T05:44:48.024Z,3.70
2023-03-12T05:47:14.444Z,2.90
2023-03-12T05:49:40.942Z,2.67
2023-03-12T05:52:07.601Z,3.13
2023-03-12T05:54:34.412Z,2.80
2023-03-12T05:57:00.846Z,2.55
2023-03-12T05:59:27.372Z,2.53
2023-03-12T06:01:53.853Z,2.80
2023-03-12T06:04:20.366Z,2.47
2023-03-12T06:06:46.802Z,3.00
2023-03-12T06:09:13.640Z,2.70
2023-03-12T06:11:40.498Z,2.50
2023-03-12T06:14:07.003Z,2.80
2023-03-12T06:16:33.750Z,2.10
2023-03-12T06:19:02.459Z,2.50
2023-03-12T06:21:31.747Z,2.42
2023-03-12T06:23:58.532Z,2.60
2023-03-12T06:26:25.609Z,2.53
2023-03-12T06:28:52.752Z,2.83
2023-03-12T06:31:20.734Z,2.45
2023-03-12T06:33:47.734Z,3.25
2023-03-12T06:36:14.746Z,3.13
2023-03-12T06:38:41.695Z,3.07
2023-03-12T06:41:11.336Z,3.05
2023-03-12T06:43:38.601Z,3.85
2023-03-12T06:46:07.515Z,2.80
2023-03-12T06:48:36.604Z,3.63
2023-03-12T06:51:04.549Z,5.73
2023-03-12T06:53:31.960Z,4.45
2023-03-12T06:55:59.099Z,3.22
2023-03-12T06:58:25.875Z,3.45
2023-03-12T07:00:53.324Z,3.15
2023-03-12T07:03:19.896Z,3.50
2023-03-12T07:05:48.663Z,2.80
2023-03-12T07:08:15.594Z,3.08
2023-03-12T07:10:42.288Z,3.28
2023-03-12T07:13:09.175Z,2.92
2023-03-12T07:15:35.572Z,3.10
2023-03-12T07:18:05.820Z,3.40
2023-03-12T07:20:32.898Z,3.70
2023-03-12T07:23:00.270Z,3.50
2023-03-12T07:25:26.929Z,3.88
2023-03-12T07:27:53.356Z,3.60
2023-03-12T07:30:19.979Z,4.03
2023-03-12T07:32:46.396Z,3.40
2023-03-12T07:35:12.871Z,3.83
2023-03-12T07:37:40.266Z,3.58
2023-03-12T07:40:07.526Z,3.93
2023-03-12T07:42:34.716Z,3.53
2023-03-12T07:45:01.249Z,4.35
2023-03-12T07:47:27.828Z,4.13
2023-03-12T07:49:54.411Z,4.22
2023-03-12T07:52:21.040Z,4.90
2023-03-12T07:54:47.942Z,4.22
2023-03-12T07:57:14.633Z,4.47
2023-03-12T07:59:41.132Z,6.60
2023-03-12T08:02:10.186Z,10.55
2023-03-12T08:04:36.823Z,7.40
2023-03-12T08:07:03.866Z,7.53
2023-03-12T08:09:30.361Z,5.95
2023-03-12T08:11:56.808Z,4.32
2023-03-12T08:14:23.351Z,7.20
2023-03-12T08:16:50.002Z,5.00
2023-03-12T08:19:16.925Z,4.57
2023-03-12T08:21:44.064Z,4.35
2023-03-12T08:24:10.577Z,5.13
2023-03-12T08:26:37.005Z,4.70
2023-03-12T08:29:03.847Z,6.00
2023-03-12T08:31:30.305Z,5.80
2023-03-12T08:33:56.945Z,5.22
2023-03-12T08:36:23.380Z,5.55
2023-03-12T08:38:49.794Z,5.43
2023-03-12T08:41:16.193Z,9.27
2023-03-12T08:43:42.608Z,5.35
2023-03-12T08:46:11.820Z,5.75
2023-03-12T08:48:39.091Z,6.05
2023-03-12T08:51:07.412Z,6.35
2023-03-12T08:53:36.171Z,8.40
2023-03-12T08:56:04.037Z,6.22
2023-03-12T08:58:31.122Z,9.27
2023-03-12T09:00:57.868Z,7.05
2023-03-12T09:03:25.844Z,6.70
2023-03-12T09:06:03.935Z,5.90
2023-03-12T09:08:30.771Z,7.07
2023-03-12T09:10:57.444Z,5.97
2023-03-12T09:13:23.879Z,7.18
2023-03-12T09:15:50.282Z,6.25
2023-03-12T09:18:16.773Z,6.57
2023-03-12T09:20:43.489Z,7.38
2023-03-12T09:23:10.013Z,6.10
2023-03-12T09:25:36.562Z,7.25
2023-03-12T09:28:03.001Z,6.82
2023-03-12T09:30:31.109Z,7.07
2023-03-12T09:32:57.954Z,8.25
2023-03-12T09:35:24.444Z,8.05
2023-03-12T09:37:51.943Z,7.03
2023-03-12T09:40:24.050Z,7.03
2023-03-12T09:43:04.624Z,6.83
2023-03-12T09:45:36.500Z,7.93
2023-03-12T09:48:06.211Z,8.07
2023-03-12T09:50:40.244Z,7.45
2023-03-12T09:53:33.513Z,7.57
2023-03-12T09:56:09.212Z,8.07
2023-03-12T09:58:38.425Z,9.05
2023-03-12T10:01:19.383Z,9.10
2023-03-12T10:04:05.971Z,9.23
2023-03-12T10:06:39.728Z,9.02
2023-03-12T10:09:36.453Z,10.43
2023-03-12T10:12:11.696Z,9.18
2023-03-12T10:14:43.836Z,9.55
2023-03-12T10:17:33.213Z,8.75
2023-03-12T10:20:21.479Z,9.48
2023-03-12T10:23:12.888Z,9.20
2023-03-12T10:25:53.015Z,9.20
2023-03-12T10:28:30.670Z,10.32
2023-03-12T10:31:22.452Z,9.68
2023-03-12T10:34:02.883Z,8.55
2023-03-12T10:36:38.062Z,9.67
2023-03-12T10:39:12.976Z,10.68
2023-03-12T10:41:43.119Z,11.85
2023-03-12T10:44:14.458Z,11.45
2023-03-12T10:46:59.859Z,18.42
2023-03-12T10:49:33.257Z,42.43
2023-03-12T10:52:02.870Z,10.98
2023-03-12T10:54:36.169Z,22.58
2023-03-12T10:57:02.819Z,12.73
2023-03-12T10:59:32.966Z,10.88
2023-03-12T11:02:00.627Z,18.77
2023-03-12T11:04:32.767Z,11.73
2023-03-12T11:07:07.072Z,9.75
2023-03-12T11:09:33.500Z,9.73
2023-03-12T11:11:59.992Z,9.57
2023-03-12T11:14:29.978Z,8.87
2023-03-12T11:16:57.031Z,8.25
2023-03-12T11:19:32.776Z,8.48
2023-03-12T11:22:05.729Z,8.48
2023-03-12T11:24:32.795Z,8.35
2023-03-12T11:27:22.796Z,8.27
2023-03-12T11:29:51.149Z,7.65
2023-03-12T11:32:38.825Z,7.10
2023-03-12T11:35:11.426Z,7.15
2023-03-12T11:37:40.252Z,7.35
2023-03-12T11:40:28.133Z,7.30
2023-03-12T11:43:13.302Z,6.57
2023-03-12T11:46:12.602Z,7.78
2023-03-12T11:48:52.237Z,5.88
2023-03-12T11:51:33.006Z,6.38
2023-03-12T11:54:25.621Z,6.80
2023-03-12T11:56:55.539Z,5.82
2023-03-12T11:59:21.954Z,6.05
2023-03-12T12:02:19.290Z,9.90
2023-03-12T12:04:58.799Z,4.68
2023-03-12T12:08:02.094Z,4.80
2023-03-12T12:10:40.020Z,6.65
2023-03-12T12:13:22.478Z,4.97
2023-03-12T12:16:13.824Z,4.68
2023-03-12T12:18:43.199Z,4.78
2023-03-12T12:21:27.904Z,4.50
2023-03-12T12:24:09.706Z,5.03
2023-03-12T12:26:49.804Z,4.45
2023-03-12T12:29:30.955Z,4.18
2023-03-12T12:31:59.637Z,4.82
2023-03-12T12:34:57.332Z,4.07
2023-03-12T12:37:46.470Z,4.15
2023-03-12T12:40:30.920Z,4.70
2023-03-12T12:43:22.205Z,4.18
2023-03-12T12:45:52.375Z,5.25
2023-03-12T12:48:32.367Z,4.80
2023-03-12T12:51:02.058Z,4.22
2023-03-12T12:53:40.952Z,5.03
2023-03-12T12:56:33.919Z,4.88
2023-03-12T12:59:28.481Z,4.30
2023-03-12T13:01:57.079Z,4.80
2023-03-12T13:04:28.556Z,5.35
2023-03-12T13:07:01.269Z,4.88
2023-03-12T13:09:38.822Z,4.40
2023-03-12T13:12:46.975Z,4.53
2023-03-12T13:15:28.373Z,6.30
2023-03-12T13:18:06.787Z,4.53
2023-03-12T13:21:05.296Z,5.95
2023-03-12T13:23:39.153Z,5.40
2023-03-12T13:26:31.846Z,5.75
2023-03-12T13:29:13.070Z,5.43
2023-03-12T13:31:41.941Z,4.95
2023-03-12T13:34:17.250Z,4.90
2023-03-12T13:36:46.062Z,4.82
2023-03-12T13:39:15.563Z,6.30
2023-03-12T13:41:44.937Z,5.63
2023-03-12T13:44:23.612Z,6.95
2023-03-12T13:47:24.392Z,7.18
2023-03-12T13:50:05.152Z,6.95
2023-03-12T13:52:46.171Z,7.47
2023-03-12T13:55:30.843Z,5.70
2023-03-12T13:58:05.363Z,7.90
2023-03-12T14:00:41.450Z,7.00
2023-03-12T14:03:27.924Z,5.15
2023-03-12T14:06:09.250Z,6.25
2023-03-12T14:09:00.498Z,6.93
2023-03-12T14:11:44.137Z,5.75
2023-03-12T14:14:58.322Z,3.90
2023-03-12T14:17:28.687Z,5.65
2023-03-12T14:20:02.619Z,4.93
2023-03-12T14:22:32.999Z,3.63
2023-03-12T14:25:06.572Z,4.07
2023-03-12T14:27:34.238Z,3.20
2023-03-12T14:30:22.549Z,4.38
2023-03-12T14:32:52.511Z,4.38
2023-03-12T14:35:29.404Z,3.43
2023-03-12T14:38:08.387Z,3.45
2023-03-12T14:40:44.291Z,2.40
2023-03-12T14:43:41.594Z,3.03
2023-03-12T14:46:17.924Z,3.13
2023-03-12T14:48:48.084Z,2.90
2023-03-12T14:51:23.885Z,3.30
2023-03-12T14:53:51.469Z,3.65
2023-03-12T14:56:28.557Z,4.35
2023-03-12T14:58:55.291Z,3.22
2023-03-12T15:01:25.844Z,4.63
2023-03-12T15:03:59.239Z,3.88
2023-03-12T15:06:33.237Z,3.05
2023-03-12T15:09:05.263Z,2.90
2023-03-12T15:11:34.796Z,3.20
2023-03-12T15:14:06.596Z,3.10
2023-03-12T15:16:34.072Z,3.75
2023-03-12T15:19:02.549Z,3.80
2023-03-12T15:21:29.348Z,3.90
2023-03-12T15:23:55.957Z,3.00
2023-03-12T15:26:22.403Z,4.30
2023-03-12T15:29:26.184Z,3.38
2023-03-12T15:31:55.674Z,4.18
2023-03-12T15:34:33.126Z,2.25
2023-03-12T15:37:02.211Z,4.00
2023-03-12T15:39:32.069Z,3.57
2023-03-12T15:42:15.480Z,4.50
2023-03-12T15:44:51.300Z,4.10
2023-03-12T15:47:24.664Z,2.80
2023-03-12T15:49:56.316Z,3.65
2023-03-12T15:52:22.800Z,3.77
2023-03-12T15:55:05.767Z,3.03
2023-03-12T15:57:46.392Z,3.28
2023-03-12T16:00:16.004Z,3.40
2023-03-12T16:02:59.975Z,2.90
2023-03-12T16:05:39.083Z,3.37
2023-03-12T16:08:26.654Z,3.53
2023-03-12T16:10:53.697Z,3.08
2023-03-12T16:13:23.205Z,2.63
2023-03-12T16:15:49.876Z,4.15
2023-03-12T16:18:19.416Z,2.90
2023-03-12T16:20:47.004Z,4.30
2023-03-12T16:23:14.482Z,3.72
2023-03-12T16:25:53.092Z,3.92
2023-03-12T16:28:22.691Z,6.32
2023-03-12T16:30:51.189Z,3.33
2023-03-12T16:33:23.812Z,4.18
2023-03-12T16:35:51.170Z,4.57
2023-03-12T16:38:17.913Z,3.80
2023-03-12T16:40:47.815Z,4.82
2023-03-12T16:43:23.390Z,3.47
2023-03-12T16:45:51.710Z,3.72
2023-03-12T16:48:21.645Z,4.35
2023-03-12T16:50:51.478Z,4.28
2023-03-12T16:53:18.679Z,3.53
2023-03-12T16:55:52.143Z,2.77
2023-03-12T16:58:20.645Z,3.10
2023-03-12T17:00:48.354Z,3.35
2023-03-12T17:03:21.720Z,3.92
2023-03-12T17:05:48.378Z,4.28
2023-03-12T17:08:16.088Z,2.90
2023-03-12T17:10:42.724Z,4.32
2023-03-12T17:13:20.289Z,3.80
2023-03-12T17:15:47.620Z,4.20
2023-03-12T17:18:14.718Z,3.08
2023-03-12T17:20:42.220Z,4.60
2023-03-12T17:23:09.340Z,3.25
2023-03-12T17:25:39.091Z,3.05
2023-03-12T17:28:06.475Z,4.45
2023-03-12T17:30:34.413Z,3.10
2023-03-12T17:33:03.459Z,4.00
2023-03-12T17:35:30.342Z,3.05
2023-03-12T17:37:57.040Z,3.20
2023-03-12T17:40:23.602Z,4.13
2023-03-12T17:42:50.364Z,3.40
2023-03-12T17:45:17.184Z,2.47
2023-03-12T17:47:43.953Z,2.58
2023-03-12T17:50:12.841Z,2.55
2023-03-12T17:52:39.399Z,3.10
2023-03-12T17:55:11.023Z,3.55
2023-03-12T17:57:38.192Z,2.60
2023-03-12T18:00:11.020Z,2.70
2023-03-12T18:02:37.615Z,2.55
2023-03-12T18:05:04.332Z,2.85
2023-03-12T18:07:30.782Z,2.50
2023-03-12T18:09:57.281Z,2.93
2023-03-12T18:12:23.773Z,2.95
2023-03-12T18:14:50.380Z,2.10
2023-03-12T18:17:16.860Z,3.03
2023-03-12T18:19:43.610Z,2.08
2023-03-12T18:22:14.082Z,2.47
2023-03-12T18:24:41.594Z,2.22
2023-03-12T18:27:08.384Z,1.73
2023-03-12T18:29:36.863Z,1.30
2023-03-12T18:32:04.114Z,2.03
2023-03-12T18:34:30.688Z,1.80
2023-03-12T18:36:57.141Z,1.33
2023-03-12T18:39:23.752Z,1.50
2023-03-12T18:41:50.485Z,1.38
2023-03-12T18:44:17.005Z,1.85
2023-03-12T18:46:43.613Z,1.50
2023-03-12T18:49:12.354Z,1.70
2023-03-12T18:51:39.152Z,1.25
2023-03-12T18:54:05.715Z,2.80
2023-03-12T18:56:32.445Z,2.50
2023-03-12T18:58:59.068Z,4.30
2023-03-12T19:01:26.260Z,3.30
2023-03-12T19:03:52.813Z,14.25
2023-03-12T19:06:19.436Z,3.30
2023-03-12T19:08:46.011Z,4.32
2023-03-12T19:11:15.820Z,2.70
2023-03-12T19:13:42.927Z,1.85
2023-03-12T19:16:11.632Z,1.83
2023-03-12T19:18:39.746Z,2.50
2023-03-12T19:21:09.746Z,1.42
2023-03-12T19:23:36.594Z,1.67
2023-03-12T19:26:04.222Z,1.90
2023-03-12T19:28:31.310Z,2.03
2023-03-12T19:31:03.909Z,1.55
2023-03-12T19:33:31.816Z,2.00
2023-03-12T19:35:58.273Z,1.60
2023-03-12T19:38:25.539Z,1.45
2023-03-12T19:40:57.324Z,1.50
2023-03-12T19:43:24.976Z,1.60
2023-03-12T19:45:53.018Z,2.38
2023-03-12T19:48:19.658Z,2.80
2023-03-12T19:50:46.160Z,2.97
2023-03-12T19:53:13.692Z,1.63
2023-03-12T19:55:40.290Z,1.42
2023-03-12T19:58:08.184Z,2.08
2023-03-12T20:00:34.726Z,2.87
2023-03-12T20:03:01.392Z,2.50
2023-03-12T20:05:28.002Z,2.90
2023-03-12T20:07:54.623Z,1.92
2023-03-12T20:10:21.229Z,2.35
2023-03-12T20:12:47.669Z,2.60
2023-03-12T20:15:14.207Z,2.55
2023-03-12T20:17:40.732Z,2.72
2023-03-12T20:20:08.900Z,3.92
2023-03-12T20:22:36.393Z,2.67
2023-03-12T20:25:05.374Z,2.53
2023-03-12T20:27:34.041Z,2.47
2023-03-12T20:30:00.613Z,3.10
2023-03-12T20:32:28.686Z,2.60
2023-03-12T20:34:55.305Z,2.75
2023-03-12T20:37:21.739Z,3.53
2023-03-12T20:39:48.212Z,3.63
2023-03-12T20:42:14.807Z,3.30
2023-03-12T20:44:41.754Z,2.88
2023-03-12T20:47:08.196Z,3.00
2023-03-12T20:49:34.719Z,2.53
2023-03-12T20:52:01.330Z,3.47
2023-03-12T20:54:27.780Z,3.08
2023-03-12T20:56:54.261Z,3.95
2023-03-12T20:59:20.712Z,3.88
2023-03-12T21:01:47.268Z,7.50
2023-03-12T21:04:13.952Z,7.93
2023-03-12T21:06:40.424Z,4.35
2023-03-12T21:09:07.306Z,12.68
2023-03-12T21:11:34.074Z,6.63
2023-03-12T21:14:00.522Z,9.20
2023-03-12T21:16:27.162Z,3.58
2023-03-12T21:18:57.482Z,4.97
2023-03-12T21:21:24.042Z,3.60
2023-03-12T21:23:50.654Z,4.65
2023-03-12T21:26:18.604Z,4.00
2023-03-12T21:28:45.525Z,4.53
2023-03-12T21:31:17.785Z,5.80
2023-03-12T21:33:44.305Z,4.70
2023-03-12T21:36:13.453Z,5.28
2023-03-12T21:38:42.617Z,4.03
2023-03-12T21:41:14.480Z,3.35
2023-03-12T21:43:41.674Z,2.75
2023-03-12T21:46:16.872Z,2.90
2023-03-12T21:48:45.948Z,3.33
2023-03-12T21:51:15.087Z,3.63
2023-03-12T21:53:41.929Z,3.15
2023-03-12T21:56:08.831Z,3.53
2023-03-12T21:58:36.448Z,3.75
2023-03-12T22:01:05.806Z,3.40
2023-03-12T22:03:32.677Z,3.50
2023-03-12T22:05:59.601Z,2.28
2023-03-12T22:08:26.053Z,2.40
2023-03-12T22:10:52.580Z,2.97
2023-03-12T22:13:19.069Z,2.50
2023-03-12T22:15:56.684Z,3.50
2023-03-12T22:18:24.025Z,2.45
2023-03-12T22:20:52.183Z,4.65
2023-03-12T22:23:18.805Z,3.10
2023-03-12T22:25:45.548Z,3.00
2023-03-12T22:28:12.124Z,2.87
2023-03-12T22:30:38.571Z,3.13
2023-03-12T22:33:05.007Z,3.80
2023-03-12T22:35:31.567Z,3.65
2023-03-12T22:37:58.329Z,2.92
2023-03-12T22:40:26.040Z,3.00
2023-03-12T22:42:56.153Z,4.07
2023-03-12T22:45:22.922Z,2.75
2023-03-12T22:47:49.364Z,3.15
2023-03-12T22:50:15.999Z,2.85
2023-03-12T22:52:42.559Z,3.47
2023-03-12T22:55:09.293Z,3.20
2023-03-12T22:57:36.864Z,4.13
2023-03-12T23:00:07.599Z,3.03
2023-03-12T23:02:34.063Z,3.80
2023-03-12T23:05:00.569Z,4.03
2023-03-12T23:07:27.139Z,2.78
2023-03-12T23:09:53.594Z,3.50
2023-03-12T23:12:20.293Z,2.20
2023-03-12T23:14:46.871Z,3.25
2023-03-12T23:17:13.417Z,2.80
2023-03-12T23:19:42.647Z,2.88
2023-03-12T23:22:09.828Z,3.72
2023-03-12T23:24:37.454Z,3.45
2023-03-12T23:27:04.706Z,3.83
2023-03-12T23:29:31.649Z,3.80
2023-03-12T23:31:58.226Z,3.72
2023-03-12T23:34:24.867Z,2.38
2023-03-12T23:36:51.362Z,3.63
2023-03-12T23:39:17.889Z,3.30
2023-03-12T23:41:44.361Z,3.57
2023-03-12T23:44:10.786Z,3.40
2023-03-12T23:46:37.254Z,3.13
2023-03-12T23:49:03.741Z,4.20
2023-03-12T23:51:32.987Z,2.92
2023-03-12T23:54:05.318Z,2.80
2023-03-12T23:56:34.737Z,2.92
2023-03-12T23:59:01.310Z,2.83
